Time;durP1;ratioP1;P1;durP2;ratioP2;P2;SDS_P1;SDS_P2;PMS_P1;PMS_P2;Temp;Humidity;BMP_temperature;BMP_pressure;BME280_temperature;BME280_humidity;BME280_pressure;Samples;Min_cycle;Max_cycle;Signal;HPM_P1;HPM_P2
2021/06/18 00:01:16;;;;;;;11.03;5.90;;;18.20;98.60;;;;;;4441061;32;20158;-66
2021/06/18 00:03:43;;;;;;;9.57;5.70;;;18.20;99.10;;;;;;4441208;32;20189;-66
2021/06/18 00:06:10;;;;;;;9.60;5.60;;;18.20;99.30;;;;;;4441781;32;20146;-67
2021/06/18 00:08:37;;;;;;;8.27;5.50;;;18.10;99.90;;;;;;4441266;32;20154;-66
2021/06/18 00:11:04;;;;;;;10.20;6.00;;;18.10;99.90;;;;;;4440737;32;20428;-66
2021/06/18 00:13:31;;;;;;;8.80;5.97;;;18.00;99.90;;;;;;4441100;32;20134;-67
2021/06/18 00:15:58;;;;;;;9.17;5.80;;;18.00;99.90;;;;;;4441144;32;20195;-67
2021/06/18 00:18:25;;;;;;;9.53;5.97;;;18.00;99.90;;;;;;4441144;32;20142;-67
2021/06/18 00:20:52;;;;;;;9.93;6.00;;;17.90;99.90;;;;;;4439643;32;20143;-67
2021/06/18 00:23:20;;;;;;;9.73;6.27;;;17.90;99.90;;;;;;4440692;32;20203;-66
2021/06/18 00:25:46;;;;;;;10.60;6.30;;;17.80;99.90;;;;;;4439622;32;20166;-67
2021/06/18 00:28:13;;;;;;;8.00;6.10;;;17.80;99.90;;;;;;4439955;32;20186;-67
2021/06/18 00:30:41;;;;;;;9.57;6.07;;;17.70;99.90;;;;;;4441239;32;20146;-67
2021/06/18 00:33:09;;;;;;;12.23;6.07;;;17.70;99.90;;;;;;4441030;32;20210;-66
2021/06/18 00:35:36;;;;;;;11.13;6.83;;;17.70;99.90;;;;;;4440825;32;20218;-67
2021/06/18 00:38:03;;;;;;;11.37;6.50;;;17.60;99.90;;;;;;4440874;32;20227;-67
2021/06/18 00:40:30;;;;;;;11.93;7.03;;;17.60;99.90;;;;;;4439961;32;20158;-67
2021/06/18 00:42:57;;;;;;;10.37;6.80;;;17.50;99.90;;;;;;4440863;32;20169;-66
2021/06/18 00:45:25;;;;;;;10.80;7.17;;;17.50;99.90;;;;;;4441272;32;20168;-66
2021/06/18 00:47:59;;;;;;;10.60;7.47;;;17.50;99.90;;;;;;4440960;32;20146;-66
2021/06/18 00:50:28;;;;;;;11.23;6.67;;;17.50;99.90;;;;;;4440951;32;20165;-66
2021/06/18 00:52:55;;;;;;;10.93;7.00;;;17.40;99.90;;;;;;4440905;32;20147;-67
2021/06/18 00:55:22;;;;;;;11.13;6.93;;;17.40;99.90;;;;;;4440901;32;20410;-66
2021/06/18 00:57:50;;;;;;;10.93;7.27;;;17.30;99.90;;;;;;4439375;32;20192;-67
2021/06/18 01:00:18;;;;;;;9.93;6.97;;;17.30;99.90;;;;;;4440919;32;20147;-66
2021/06/18 01:02:46;;;;;;;10.87;7.30;;;17.30;99.90;;;;;;4440794;32;20158;-66
2021/06/18 01:05:15;;;;;;;11.43;7.87;;;17.20;99.90;;;;;;4440096;32;20286;-67
2021/06/18 01:07:57;;;;;;;9.27;7.00;;;17.20;99.90;;;;;;4439831;32;20193;-67
2021/06/18 01:10:45;;;;;;;12.33;7.53;;;17.20;99.90;;;;;;4439361;32;20143;-68
2021/06/18 01:13:15;;;;;;;10.67;7.37;;;17.10;99.90;;;;;;4440925;32;20391;-67
2021/06/18 01:15:47;;;;;;;12.00;7.90;;;17.10;99.90;;;;;;4439276;32;20134;-67
2021/06/18 01:18:19;;;;;;;12.67;8.13;;;17.00;99.90;;;;;;4441065;32;20162;-68
2021/06/18 01:20:54;;;;;;;9.00;7.13;;;17.00;99.90;;;;;;4441148;32;20365;-67
2021/06/18 01:23:30;;;;;;;11.43;7.77;;;17.00;99.90;;;;;;4440801;32;20205;-67
2021/06/18 01:26:19;;;;;;;14.07;8.37;;;17.00;99.90;;;;;;4439393;32;20209;-68
2021/06/18 01:28:51;;;;;;;16.37;8.80;;;16.90;99.90;;;;;;4441016;32;20208;-67
2021/06/18 01:31:21;;;;;;;10.83;8.13;;;16.90;99.90;;;;;;4439923;32;20451;-68
2021/06/18 01:33:57;;;;;;;13.97;8.27;;;16.90;99.90;;;;;;4441226;32;20504;-67
2021/06/18 01:36:25;;;;;;;11.03;8.07;;;16.80;99.90;;;;;;4443035;32;20285;-68
2021/06/18 01:38:55;;;;;;;13.60;8.63;;;16.80;99.90;;;;;;4443551;32;20139;-68
2021/06/18 01:41:25;;;;;;;10.13;7.70;;;16.80;99.90;;;;;;4443551;32;20154;-67
2021/06/18 01:43:53;;;;;;;12.13;7.70;;;16.80;99.90;;;;;;4442310;32;20387;-67
2021/06/18 01:46:28;;;;;;;11.30;8.20;;;16.80;99.90;;;;;;4443205;32;20529;-67
2021/06/18 01:49:08;;;;;;;11.83;8.13;;;16.70;99.90;;;;;;4443763;32;20408;-67
2021/06/18 01:51:36;;;;;;;10.33;7.80;;;16.70;99.90;;;;;;4443252;32;20165;-66
2021/06/18 01:54:04;;;;;;;15.07;8.03;;;16.70;99.90;;;;;;4443145;32;20194;-67
2021/06/18 01:56:36;;;;;;;10.23;7.67;;;16.70;99.90;;;;;;4441806;32;20185;-67
2021/06/18 01:59:05;;;;;;;11.70;7.73;;;16.60;99.90;;;;;;4441534;32;20615;-68
2021/06/18 02:01:39;;;;;;;11.50;8.37;;;16.60;99.90;;;;;;4441621;32;20142;-67
2021/06/18 02:04:07;;;;;;;12.20;8.30;;;16.60;99.90;;;;;;4443086;32;20150;-67
2021/06/18 02:06:36;;;;;;;12.37;8.33;;;16.60;99.90;;;;;;4443127;32;20452;-67
2021/06/18 02:09:05;;;;;;;11.90;8.40;;;16.60;99.90;;;;;;4441639;32;20182;-67
2021/06/18 02:11:35;;;;;;;13.20;8.50;;;16.50;99.90;;;;;;4441397;32;20172;-68
2021/06/18 02:14:07;;;;;;;12.60;8.67;;;16.50;99.90;;;;;;4441328;32;20423;-68
2021/06/18 02:16:37;;;;;;;14.57;8.50;;;16.50;99.90;;;;;;4442416;32;20197;-68
2021/06/18 02:19:06;;;;;;;11.47;7.97;;;16.50;99.90;;;;;;4441689;32;20575;-67
2021/06/18 02:21:33;;;;;;;11.13;8.10;;;16.40;99.90;;;;;;4442871;32;20214;-67
2021/06/18 02:24:01;;;;;;;15.20;8.73;;;16.40;99.90;;;;;;4441299;32;20168;-68
2021/06/18 02:26:28;;;;;;;13.80;8.60;;;16.40;99.90;;;;;;4442801;32;20169;-67
2021/06/18 02:28:55;;;;;;;14.73;9.00;;;16.30;99.90;;;;;;4441293;32;20146;-68
2021/06/18 02:31:24;;;;;;;12.93;8.80;;;16.40;99.90;;;;;;4441118;32;20395;-66
2021/06/18 02:33:52;;;;;;;12.47;8.73;;;16.40;99.90;;;;;;4442428;32;20157;-68
2021/06/18 02:36:20;;;;;;;11.97;8.70;;;16.30;99.90;;;;;;4440763;32;20207;-66
2021/06/18 02:38:48;;;;;;;12.30;8.43;;;16.30;99.90;;;;;;4441013;32;20142;-67
2021/06/18 02:41:16;;;;;;;13.20;8.40;;;16.40;99.90;;;;;;4442415;32;20183;-67
2021/06/18 02:43:43;;;;;;;11.80;8.67;;;16.30;99.90;;;;;;4441829;32;20222;-66
2021/06/18 02:46:20;;;;;;;12.50;8.90;;;16.40;99.90;;;;;;4440820;32;20150;-67
2021/06/18 02:48:51;;;;;;;11.83;8.70;;;16.40;99.90;;;;;;4441872;32;20162;-67
2021/06/18 02:51:45;;;;;;;13.63;8.47;;;16.40;99.90;;;;;;4442488;32;20196;-67
2021/06/18 02:54:27;;;;;;;13.33;8.20;;;16.40;99.90;;;;;;4442447;32;20130;-67
2021/06/18 02:57:01;;;;;;;11.40;8.13;;;16.50;99.90;;;;;;4440948;32;20249;-67
2021/06/18 02:59:36;;;;;;;13.67;8.60;;;16.60;99.90;;;;;;4442049;32;20436;-67
2021/06/18 03:02:08;;;;;;;13.07;8.67;;;16.60;99.90;;;;;;4442574;32;20544;-67
2021/06/18 03:04:38;;;;;;;13.93;8.73;;;16.60;99.90;;;;;;4441629;32;20162;-67
2021/06/18 03:07:17;;;;;;;10.83;8.23;;;16.70;99.90;;;;;;4437213;32;20147;-67
2021/06/18 03:09:53;;;;;;;15.07;8.97;;;16.70;99.90;;;;;;4440418;32;20170;-66
2021/06/18 03:12:24;;;;;;;14.00;8.80;;;16.80;99.90;;;;;;4434332;32;20158;-67
2021/06/18 03:15:04;;;;;;;18.10;9.20;;;16.90;99.90;;;;;;4426644;32;20150;-67
2021/06/18 03:17:36;;;;;;;11.20;8.27;;;16.90;99.90;;;;;;4425543;32;20167;-67
2021/06/18 03:20:11;;;;;;;13.10;8.80;;;17.00;99.90;;;;;;4426602;32;20218;-67
2021/06/18 03:22:40;;;;;;;11.90;8.50;;;17.00;99.90;;;;;;4426259;32;20191;-67
2021/06/18 03:25:08;;;;;;;14.90;8.50;;;17.10;99.90;;;;;;4425029;32;20150;-67
2021/06/18 03:27:36;;;;;;;12.83;8.47;;;17.10;99.90;;;;;;4426377;32;20159;-67
2021/06/18 03:30:06;;;;;;;11.27;8.30;;;17.20;99.90;;;;;;4424915;32;20198;-67
2021/06/18 03:32:37;;;;;;;13.50;8.50;;;17.20;99.90;;;;;;4424219;32;20202;-67
2021/06/18 03:35:06;;;;;;;11.67;8.37;;;17.30;99.90;;;;;;4426106;32;20273;-67
2021/06/18 03:37:33;;;;;;;12.17;8.27;;;17.30;99.90;;;;;;4426227;32;20198;-67
2021/06/18 03:40:01;;;;;;;12.90;8.73;;;17.40;99.90;;;;;;4426462;32;20151;-67
2021/06/18 03:42:28;;;;;;;14.93;8.60;;;17.40;99.90;;;;;;4424720;32;20216;-67
2021/06/18 03:44:55;;;;;;;12.13;8.93;;;17.50;99.90;;;;;;4425949;32;20270;-67
2021/06/18 03:47:25;;;;;;;13.77;8.83;;;17.50;99.90;;;;;;4426176;32;20178;-68
2021/06/18 03:49:53;;;;;;;12.60;8.93;;;17.60;99.90;;;;;;4424562;32;20215;-67
2021/06/18 03:52:21;;;;;;;13.47;8.97;;;17.70;99.90;;;;;;4424451;32;20180;-67
2021/06/18 03:54:47;;;;;;;15.87;8.97;;;17.70;99.90;;;;;;4425506;32;20212;-67
2021/06/18 03:57:17;;;;;;;13.90;9.20;;;17.70;99.90;;;;;;4427186;32;20216;-67
2021/06/18 03:59:45;;;;;;;14.40;8.70;;;17.70;99.90;;;;;;4434064;32;20190;-67
2021/06/18 04:02:15;;;;;;;13.03;9.30;;;17.80;99.90;;;;;;4432825;32;20150;-67
2021/06/18 04:04:44;;;;;;;14.23;8.43;;;17.80;99.90;;;;;;4427013;32;20211;-67
2021/06/18 04:07:12;;;;;;;13.80;8.77;;;17.80;99.90;;;;;;4426275;32;20369;-67
2021/06/18 04:09:40;;;;;;;16.43;9.00;;;17.90;99.90;;;;;;4425507;32;20433;-67
2021/06/18 04:12:08;;;;;;;13.10;8.87;;;18.00;99.90;;;;;;4424265;32;20143;-67
2021/06/18 04:14:36;;;;;;;13.73;8.87;;;18.00;99.90;;;;;;4424189;32;20201;-67
2021/06/18 04:17:05;;;;;;;13.13;8.60;;;18.00;99.90;;;;;;4425736;32;20457;-67
2021/06/18 04:19:33;;;;;;;12.40;8.43;;;17.90;99.90;;;;;;4425692;32;20413;-67
2021/06/18 04:22:01;;;;;;;13.37;8.63;;;18.00;99.90;;;;;;4425916;32;20140;-67
2021/06/18 04:24:29;;;;;;;10.63;8.03;;;18.00;99.90;;;;;;4423427;32;20173;-67
2021/06/18 04:26:55;;;;;;;12.03;8.37;;;18.10;99.90;;;;;;4424130;32;20147;-67
2021/06/18 04:29:23;;;;;;;12.50;8.20;;;18.20;99.90;;;;;;4422394;32;20436;-67
2021/06/18 04:31:50;;;;;;;10.23;7.53;;;18.30;99.90;;;;;;4424575;32;20143;-67
2021/06/18 04:34:18;;;;;;;12.40;8.00;;;18.40;99.90;;;;;;4423969;32;20163;-67
2021/06/18 04:36:46;;;;;;;11.27;7.90;;;18.50;99.90;;;;;;4425304;32;20201;-67
2021/06/18 04:39:13;;;;;;;11.03;8.07;;;18.50;99.90;;;;;;4425459;32;20189;-67
2021/06/18 04:41:40;;;;;;;11.20;7.93;;;18.70;99.90;;;;;;4425519;32;20439;-67
2021/06/18 04:44:07;;;;;;;10.50;7.50;;;18.70;99.90;;;;;;4425441;32;20146;-67
2021/06/18 04:46:34;;;;;;;11.97;7.53;;;18.80;99.90;;;;;;4425482;32;20143;-67
2021/06/18 04:49:02;;;;;;;11.00;7.87;;;18.90;99.90;;;;;;4425510;32;20177;-67
2021/06/18 04:51:28;;;;;;;10.67;7.70;;;19.00;99.90;;;;;;4423959;32;20147;-67
2021/06/18 04:53:55;;;;;;;9.50;7.20;;;19.10;99.90;;;;;;4424505;32;20165;-67
2021/06/18 04:56:22;;;;;;;11.90;7.27;;;19.10;99.90;;;;;;4425123;32;20147;-67
2021/06/18 04:58:49;;;;;;;12.07;7.63;;;19.30;99.90;;;;;;4424124;32;20143;-67
2021/06/18 05:01:16;;;;;;;10.00;6.93;;;19.30;99.90;;;;;;4424770;32;20469;-67
2021/06/18 05:03:43;;;;;;;12.20;7.45;;;19.40;99.90;;;;;;4424822;32;20469;-67
2021/06/18 05:06:11;;;;;;;11.23;7.17;;;19.50;99.90;;;;;;4425076;32;20139;-68
2021/06/18 05:08:38;;;;;;;11.40;7.27;;;19.60;99.90;;;;;;4424646;32;20574;-68
2021/06/18 05:11:05;;;;;;;10.30;7.47;;;19.70;99.90;;;;;;4425948;32;20296;-68
2021/06/18 05:13:31;;;;;;;9.87;7.13;;;19.80;99.90;;;;;;4424476;32;20182;-68
2021/06/18 05:15:58;;;;;;;9.63;7.10;;;19.90;99.90;;;;;;4424330;32;20262;-68
2021/06/18 05:18:30;;;;;;;12.13;7.27;;;20.00;99.90;;;;;;4425938;32;20154;-68
2021/06/18 05:20:57;;;;;;;11.27;7.17;;;20.10;99.90;;;;;;4424362;32;20206;-68
2021/06/18 05:23:24;;;;;;;10.40;6.80;;;20.20;99.90;;;;;;4424596;32;20181;-68
2021/06/18 05:25:53;;;;;;;11.33;7.10;;;20.40;99.90;;;;;;4426508;32;20150;-68
2021/06/18 05:28:21;;;;;;;9.33;6.83;;;20.40;99.90;;;;;;4426497;32;20169;-68
2021/06/18 05:30:48;;;;;;;9.80;6.50;;;20.60;99.90;;;;;;4428006;32;20170;-68
2021/06/18 05:33:15;;;;;;;12.20;7.23;;;20.70;99.90;;;;;;4426858;32;20210;-68
2021/06/18 05:35:44;;;;;;;13.47;7.00;;;20.70;99.90;;;;;;4426602;32;20181;-68
2021/06/18 05:38:12;;;;;;;10.67;7.10;;;20.80;99.90;;;;;;4427307;32;20177;-68
2021/06/18 05:40:41;;;;;;;10.30;6.47;;;20.90;99.90;;;;;;4426675;32;20155;-68
2021/06/18 05:43:10;;;;;;;9.20;6.87;;;21.00;99.90;;;;;;4426312;32;20182;-68
2021/06/18 05:45:40;;;;;;;9.37;6.40;;;21.10;99.90;;;;;;4425792;32;20155;-69
2021/06/18 05:48:07;;;;;;;11.13;7.10;;;21.20;99.90;;;;;;4427400;32;20209;-68
2021/06/18 05:50:34;;;;;;;10.83;6.60;;;21.20;99.90;;;;;;4426680;32;20155;-68
2021/06/18 05:53:02;;;;;;;9.63;6.03;;;21.40;99.90;;;;;;4427701;32;20182;-68
2021/06/18 05:55:29;;;;;;;9.07;6.57;;;21.50;99.90;;;;;;4427552;32;20464;-68
2021/06/18 05:57:55;;;;;;;10.90;6.57;;;21.60;99.90;;;;;;4426045;32;20181;-68
2021/06/18 06:00:22;;;;;;;9.33;6.23;;;21.70;99.90;;;;;;4427568;32;20219;-68
2021/06/18 06:03:11;;;;;;;9.40;6.57;;;21.80;99.90;;;;;;4427407;32;20166;-68
2021/06/18 06:05:38;;;;;;;8.67;6.50;;;21.90;99.90;;;;;;4427014;32;20431;-68
2021/06/18 06:08:10;;;;;;;10.65;6.20;;;22.00;99.90;;;;;;4425623;32;20165;-67
2021/06/18 06:10:48;;;;;;;8.90;6.50;;;22.20;99.90;;;;;;4427003;32;20147;-67
2021/06/18 06:13:19;;;;;;;10.07;6.85;;;22.30;99.90;;;;;;4427085;32;20178;-68
2021/06/18 06:15:47;;;;;;;9.52;6.28;;;22.40;99.90;;;;;;4426290;32;20142;-68
2021/06/18 06:18:14;;;;;;;7.53;6.17;;;22.50;99.90;;;;;;4427152;32;20428;-67
2021/06/18 06:20:42;;;;;;;10.80;6.30;;;22.60;99.90;;;;;;4426070;32;20143;-67
2021/06/18 06:23:10;;;;;;;11.93;6.43;;;22.70;99.90;;;;;;4427219;32;20196;-69
2021/06/18 06:25:38;;;;;;;10.65;6.37;;;22.80;99.90;;;;;;4425586;32;20174;-68
2021/06/18 06:28:05;;;;;;;10.80;7.03;;;23.00;99.90;;;;;;4426959;32;20441;-68
2021/06/18 06:30:32;;;;;;;11.07;7.15;;;23.10;99.90;;;;;;4425924;32;20210;-68
2021/06/18 06:33:00;;;;;;;9.63;6.35;;;23.20;99.90;;;;;;4426740;32;20199;-69
2021/06/18 06:35:26;;;;;;;10.83;7.27;;;23.30;99.90;;;;;;4425293;32;20163;-69
2021/06/18 06:37:54;;;;;;;10.38;6.95;;;23.40;99.90;;;;;;4425047;32;20155;-69
2021/06/18 06:40:23;;;;;;;9.10;6.65;;;23.60;99.90;;;;;;4426163;32;20151;-69
2021/06/18 06:42:51;;;;;;;12.05;6.93;;;23.70;99.90;;;;;;4425136;32;20188;-69
2021/06/18 06:45:18;;;;;;;10.20;6.72;;;23.90;99.90;;;;;;4425723;32;20157;-69
2021/06/18 06:47:46;;;;;;;9.55;7.10;;;24.00;99.90;;;;;;4426540;32;20182;-69
2021/06/18 06:50:14;;;;;;;8.88;6.65;;;24.10;99.90;;;;;;4424989;32;20227;-67
2021/06/18 06:52:42;;;;;;;11.10;6.75;;;24.10;99.90;;;;;;4424887;32;20146;-67
2021/06/18 06:55:10;;;;;;;10.18;7.03;;;24.30;99.90;;;;;;4424945;32;20138;-68
2021/06/18 06:57:37;;;;;;;10.65;6.95;;;24.40;99.90;;;;;;4426405;32;20198;-68
2021/06/18 07:00:07;;;;;;;10.13;6.80;;;24.60;99.90;;;;;;4426370;32;20169;-67
2021/06/18 07:02:35;;;;;;;11.12;7.05;;;24.60;99.90;;;;;;4425285;32;20472;-67
2021/06/18 07:05:03;;;;;;;8.70;6.40;;;24.60;99.30;;;;;;4425129;32;20209;-67
2021/06/18 07:07:30;;;;;;;11.32;7.12;;;24.60;99.50;;;;;;4426317;32;20139;-67
2021/06/18 07:09:57;;;;;;;9.55;7.10;;;24.70;99.00;;;;;;4424865;32;20317;-67
2021/06/18 07:12:24;;;;;;;10.43;6.87;;;24.80;99.60;;;;;;4425191;32;20219;-68
2021/06/18 07:36:32;;;;;;;9.68;6.12;;;25.00;97.20;;;;;;4468419;32;20219;-68
2021/06/18 07:38:59;;;;;;;8.82;6.72;;;25.70;95.40;;;;;;4467720;32;20186;-67
2021/06/18 07:41:26;;;;;;;8.05;5.90;;;25.80;94.30;;;;;;4467841;32;20138;-69
2021/06/18 07:43:53;;;;;;;9.10;5.87;;;25.90;93.70;;;;;;4468087;32;20142;-68
2021/06/18 07:46:23;;;;;;;7.25;5.50;;;25.90;93.70;;;;;;4467767;32;20146;-68
2021/06/18 07:48:51;;;;;;;7.55;5.75;;;25.90;92.80;;;;;;4467532;32;20423;-69
2021/06/18 07:51:18;;;;;;;8.07;5.95;;;26.10;92.90;;;;;;4468578;32;20187;-67
2021/06/18 07:53:45;;;;;;;9.35;6.10;;;26.10;92.10;;;;;;4467507;32;20169;-68
2021/06/18 07:56:12;;;;;;;12.48;6.10;;;26.20;93.20;;;;;;4467272;32;20206;-68
2021/06/18 07:58:39;;;;;;;9.90;5.87;;;26.30;91.80;;;;;;4467252;32;20186;-68
2021/06/18 08:01:07;;;;;;;8.70;5.97;;;26.40;92.10;;;;;;4467387;32;20469;-68
2021/06/18 08:03:34;;;;;;;7.43;5.50;;;26.50;92.20;;;;;;4467213;32;20138;-68
2021/06/18 08:06:00;;;;;;;7.10;5.45;;;26.60;90.40;;;;;;4467138;32;20484;-68
2021/06/18 08:08:27;;;;;;;6.90;5.70;;;26.60;90.00;;;;;;4468756;32;20237;-69
2021/06/18 08:10:54;;;;;;;7.50;5.68;;;26.60;89.20;;;;;;4466564;32;20138;-67
2021/06/18 08:13:21;;;;;;;9.18;6.00;;;26.70;90.00;;;;;;4467259;32;20134;-68
2021/06/18 08:15:48;;;;;;;8.07;5.70;;;26.70;88.30;;;;;;4467203;32;20145;-68
2021/06/18 08:18:15;;;;;;;6.90;5.37;;;26.80;90.10;;;;;;4467264;32;20232;-68
2021/06/18 08:20:43;;;;;;;6.60;5.32;;;26.90;88.10;;;;;;4468682;32;20146;-68
2021/06/18 08:23:10;;;;;;;7.57;5.62;;;27.00;87.60;;;;;;4467182;32;20191;-68
2021/06/18 08:25:37;;;;;;;6.35;5.20;;;27.20;87.00;;;;;;4468644;32;20153;-68
2021/06/18 08:28:04;;;;;;;8.15;5.47;;;27.90;84.50;;;;;;4468451;32;20145;-68
2021/06/18 08:30:31;;;;;;;8.73;5.03;;;28.80;79.10;;;;;;4465417;32;20161;-68
2021/06/18 08:32:59;;;;;;;6.35;4.72;;;29.50;74.40;;;;;;4466721;32;20349;-68
2021/06/18 08:35:30;;;;;;;8.60;4.87;;;30.20;69.30;;;;;;4466497;32;20207;-69
2021/06/18 08:38:00;;;;;;;30.42;7.00;;;30.50;68.60;;;;;;4457932;32;20574;-68
2021/06/18 08:40:32;;;;;;;5.28;4.57;;;31.10;64.20;;;;;;4458347;32;20195;-68
2021/06/18 08:43:00;;;;;;;5.43;4.32;;;31.20;62.70;;;;;;4456633;32;20172;-68
2021/06/18 08:45:27;;;;;;;6.45;4.40;;;31.40;59.90;;;;;;4456325;32;20173;-68
2021/06/18 08:47:54;;;;;;;5.15;4.22;;;31.50;58.30;;;;;;4456378;32;20386;-68
2021/06/18 08:50:25;;;;;;;4.32;3.92;;;31.60;57.70;;;;;;4456208;32;20135;-68
2021/06/18 08:52:55;;;;;;;5.55;4.40;;;31.90;57.70;;;;;;4456212;32;20146;-69
2021/06/18 08:55:25;;;;;;;5.37;3.90;;;32.10;59.00;;;;;;4457759;32;20200;-69
2021/06/18 08:57:55;;;;;;;6.10;4.07;;;32.70;54.80;;;;;;4456807;32;20209;-69
2021/06/18 09:00:23;;;;;;;4.82;4.07;;;32.70;54.10;;;;;;4457646;32;20165;-69
2021/06/18 09:02:50;;;;;;;5.57;3.83;;;32.80;53.50;;;;;;4457601;32;20164;-68
2021/06/18 09:05:18;;;;;;;5.05;4.10;;;32.80;53.50;;;;;;4456184;32;20418;-68
2021/06/18 09:08:00;;;;;;;6.65;4.20;;;33.00;53.90;;;;;;4456137;32;20332;-68
2021/06/18 09:10:40;;;;;;;8.48;4.18;;;33.20;53.60;;;;;;4457915;32;20158;-68
2021/06/18 09:13:15;;;;;;;5.22;4.28;;;33.30;53.00;;;;;;4456144;32;20134;-69
2021/06/18 09:15:52;;;;;;;5.87;4.20;;;33.50;51.90;;;;;;4455936;32;20168;-69
2021/06/18 09:18:39;;;;;;;4.35;3.80;;;33.60;50.60;;;;;;4457582;32;20466;-69
2021/06/18 09:21:17;;;;;;;5.68;4.12;;;33.30;51.40;;;;;;4455952;32;20143;-67
2021/06/18 09:23:45;;;;;;;5.25;4.00;;;33.20;50.50;;;;;;4455926;32;20142;-68
2021/06/18 09:26:38;;;;;;;4.72;3.97;;;33.10;50.50;;;;;;4456700;32;20522;-68
2021/06/18 09:29:15;;;;;;;5.93;4.15;;;33.00;50.10;;;;;;4456580;32;20170;-68
2021/06/18 09:31:50;;;;;;;4.93;4.00;;;32.60;51.90;;;;;;4457740;32;20142;-68
2021/06/18 09:35:17;;;;;;;4.75;4.10;;;32.50;49.80;;;;;;4456886;32;20466;-69
2021/06/18 09:37:41;;;;;;;6.07;4.20;;;32.80;49.60;;;;;;4449905;32;20228;-69
2021/06/18 09:40:16;;;;;;;5.37;4.35;;;33.00;50.80;;;;;;4457337;32;20546;-70
2021/06/18 09:42:49;;;;;;;4.85;3.80;;;33.30;50.60;;;;;;4457356;32;20168;-70
2021/06/18 09:45:22;;;;;;;4.22;3.83;;;33.50;50.20;;;;;;4456255;32;20181;-69
2021/06/18 09:47:50;;;;;;;6.82;4.05;;;33.50;48.60;;;;;;4455392;32;20386;-69
2021/06/18 09:50:31;;;;;;;5.65;3.90;;;33.60;48.50;;;;;;4453442;32;20134;-68
2021/06/18 09:53:16;;;;;;;8.63;3.70;;;33.60;47.70;;;;;;4456932;32;20135;-68
2021/06/18 09:55:46;;;;;;;6.05;3.78;;;33.60;47.10;;;;;;4455646;32;20173;-69
2021/06/18 09:58:30;;;;;;;5.40;3.90;;;33.80;47.60;;;;;;4456331;32;20146;-69
2021/06/18 10:01:34;;;;;;;4.82;3.70;;;33.90;47.20;;;;;;4457223;32;20187;-69
2021/06/18 10:04:13;;;;;;;4.50;3.70;;;34.00;47.50;;;;;;4455446;32;20172;-69
2021/06/18 10:06:42;;;;;;;5.22;3.87;;;34.20;46.20;;;;;;4456974;32;20189;-69
2021/06/18 10:09:11;;;;;;;4.87;3.80;;;34.30;46.30;;;;;;4455255;32;20201;-68
2021/06/18 10:11:42;;;;;;;5.72;3.95;;;34.60;44.90;;;;;;4456539;32;20149;-69
2021/06/18 10:14:09;;;;;;;5.80;3.87;;;34.50;45.20;;;;;;4456173;32;20222;-69
2021/06/18 10:16:38;;;;;;;4.97;3.60;;;34.10;45.60;;;;;;4454891;32;20155;-68
2021/06/18 10:19:05;;;;;;;4.95;3.60;;;34.20;44.80;;;;;;4455068;32;20174;-69
2021/06/18 10:21:43;;;;;;;4.30;3.80;;;34.50;45.00;;;;;;4455567;32;20453;-69
2021/06/18 10:24:11;;;;;;;3.60;3.30;;;34.70;44.20;;;;;;4456210;32;20134;-69
2021/06/18 10:26:41;;;;;;;4.00;3.58;;;35.00;44.20;;;;;;4455823;32;20530;-68
2021/06/18 10:29:08;;;;;;;5.40;3.50;;;35.00;43.30;;;;;;4455832;32;20442;-69
2021/06/18 10:31:36;;;;;;;4.15;3.70;;;35.20;43.40;;;;;;4456357;32;20166;-68
2021/06/18 10:34:08;;;;;;;5.12;3.75;;;35.60;43.30;;;;;;4454558;32;20165;-70
2021/06/18 10:36:37;;;;;;;5.28;3.80;;;35.70;43.30;;;;;;4455707;32;20178;-70
2021/06/18 10:39:04;;;;;;;5.40;3.45;;;35.80;42.00;;;;;;4455031;32;20154;-70
2021/06/18 10:41:30;;;;;;;4.80;3.50;;;36.10;41.60;;;;;;4456429;32;20138;-69
2021/06/18 10:43:58;;;;;;;4.53;3.58;;;36.40;41.00;;;;;;4456439;32;20138;-70
2021/06/18 10:46:32;;;;;;;3.50;3.20;;;36.50;40.20;;;;;;4456179;32;20139;-69
2021/06/18 10:49:11;;;;;;;4.10;3.70;;;36.50;41.30;;;;;;4456403;32;20150;-69
2021/06/18 10:51:51;;;;;;;3.70;3.30;;;36.90;40.00;;;;;;4454955;32;20138;-70
2021/06/18 10:54:44;;;;;;;5.15;3.47;;;37.00;40.40;;;;;;4456356;32;20138;-70
2021/06/18 10:57:16;;;;;;;4.32;3.72;;;37.00;41.30;;;;;;4455816;32;20158;-69
2021/06/18 10:59:48;;;;;;;5.35;3.30;;;37.10;39.30;;;;;;4454413;32;20154;-68
2021/06/18 11:02:21;;;;;;;4.32;3.67;;;37.20;40.20;;;;;;4452736;32;20214;-69
2021/06/18 11:04:52;;;;;;;4.72;3.85;;;37.00;39.10;;;;;;4456348;32;20357;-69
2021/06/18 11:07:20;;;;;;;5.47;3.80;;;37.10;40.50;;;;;;4455979;32;20195;-69
2021/06/18 11:09:52;;;;;;;5.37;3.75;;;37.40;40.10;;;;;;4454523;32;20138;-69
2021/06/18 11:12:22;;;;;;;7.00;3.95;;;37.80;39.70;;;;;;4454414;32;20146;-69
2021/06/18 11:14:57;;;;;;;4.60;3.85;;;38.20;39.80;;;;;;4454341;32;20192;-69
2021/06/18 11:17:53;;;;;;;4.22;3.80;;;38.30;38.10;;;;;;4455000;32;20179;-69
2021/06/18 11:20:33;;;;;;;4.22;3.75;;;38.10;38.60;;;;;;4456011;32;20205;-68
2021/06/18 11:23:15;;;;;;;6.22;3.90;;;38.10;38.70;;;;;;4454407;32;20396;-70
2021/06/18 11:25:43;;;;;;;4.45;4.05;;;38.20;39.00;;;;;;4455093;32;20168;-70
2021/06/18 11:28:18;;;;;;;5.85;3.95;;;38.10;38.90;;;;;;4455731;32;20143;-69
2021/06/18 11:30:58;;;;;;;5.05;3.80;;;38.20;39.30;;;;;;4454509;32;20177;-69
2021/06/18 11:33:41;;;;;;;4.95;4.10;;;38.40;38.10;;;;;;4455784;32;20177;-69
2021/06/18 11:36:08;;;;;;;5.12;3.50;;;38.50;38.50;;;;;;4454109;32;20178;-70
2021/06/18 11:38:36;;;;;;;4.22;3.60;;;38.40;38.10;;;;;;4455617;32;20249;-70
2021/06/18 11:41:09;;;;;;;5.55;3.70;;;38.10;37.60;;;;;;4455467;32;20142;-70
2021/06/18 11:43:40;;;;;;;5.10;3.47;;;38.10;37.70;;;;;;4454739;32;20146;-70
2021/06/18 11:46:08;;;;;;;5.95;3.70;;;38.30;36.60;;;;;;4455431;32;20142;-70
2021/06/18 11:48:36;;;;;;;4.12;3.72;;;38.20;37.50;;;;;;4454082;32;20182;-69
2021/06/18 11:51:04;;;;;;;3.90;3.50;;;38.30;38.00;;;;;;4454123;32;20146;-69
2021/06/18 11:53:38;;;;;;;4.10;3.70;;;38.60;37.60;;;;;;4453990;32;20143;-69
2021/06/18 11:56:07;;;;;;;4.10;3.40;;;38.80;37.10;;;;;;4454113;32;20222;-69
2021/06/18 11:58:40;;;;;;;4.50;3.92;;;39.00;37.30;;;;;;4453524;32;20453;-68
2021/06/18 12:01:16;;;;;;;4.10;3.70;;;39.00;37.10;;;;;;4455569;32;20138;-70
2021/06/18 12:03:54;;;;;;;3.90;3.53;;;39.00;36.70;;;;;;4453913;32;20149;-68
2021/06/18 12:06:27;;;;;;;4.55;3.72;;;39.60;36.50;;;;;;4455601;32;20448;-69
2021/06/18 12:09:13;;;;;;;6.05;3.40;;;39.80;36.40;;;;;;4453979;32;20154;-71
2021/06/18 12:11:42;;;;;;;6.30;3.60;;;39.80;35.90;;;;;;4456999;32;20139;-69
2021/06/18 12:14:12;;;;;;;6.30;3.72;;;39.80;36.00;;;;;;4457272;32;20142;-69
2021/06/18 12:16:44;;;;;;;5.00;3.80;;;39.70;36.40;;;;;;4457108;32;20169;-69
2021/06/18 12:19:22;;;;;;;5.53;3.85;;;39.80;35.70;;;;;;4458691;32;20142;-69
2021/06/18 12:22:00;;;;;;;4.95;3.62;;;39.90;36.40;;;;;;4456830;32;20147;-69
2021/06/18 12:24:39;;;;;;;4.22;3.83;;;40.20;35.60;;;;;;4456700;32;20150;-69
2021/06/18 12:27:08;;;;;;;4.45;3.67;;;40.20;34.40;;;;;;4458004;32;20177;-69
2021/06/18 12:29:55;;;;;;;5.32;3.72;;;40.20;35.00;;;;;;4456654;32;20208;-69
2021/06/18 12:32:29;;;;;;;7.22;3.62;;;40.40;35.80;;;;;;4458396;32;20147;-69
2021/06/18 12:35:00;;;;;;;5.72;3.65;;;40.80;34.80;;;;;;4457822;32;20180;-69
2021/06/18 12:37:38;;;;;;;6.07;4.00;;;40.90;36.30;;;;;;4456866;32;20151;-69
2021/06/18 12:40:15;;;;;;;4.43;3.90;;;40.60;35.90;;;;;;4456600;32;20192;-69
2021/06/18 12:42:49;;;;;;;5.65;4.18;;;40.70;35.20;;;;;;4458280;32;20138;-70
2021/06/18 12:45:23;;;;;;;5.35;4.35;;;40.80;35.40;;;;;;4457088;32;20483;-68
2021/06/18 12:48:33;;;;;;;5.45;3.97;;;40.30;35.30;;;;;;4457301;32;20142;-69
2021/06/18 12:51:02;;;;;;;7.05;4.53;;;39.90;35.40;;;;;;4393208;32;20158;-69
2021/06/18 12:53:36;;;;;;;4.35;3.95;;;40.10;36.50;;;;;;4393437;32;20525;-69
2021/06/18 12:56:16;;;;;;;5.03;4.00;;;40.20;35.20;;;;;;4392858;32;20174;-69
2021/06/18 12:58:46;;;;;;;4.50;4.10;;;40.80;35.60;;;;;;4393422;32;20173;-69
2021/06/18 13:01:26;;;;;;;4.72;4.32;;;40.70;35.10;;;;;;4392533;32;20400;-69
2021/06/18 13:04:07;;;;;;;5.87;4.00;;;40.80;36.20;;;;;;4394377;32;20179;-69
2021/06/18 13:06:40;;;;;;;4.57;4.00;;;40.80;35.90;;;;;;4394649;32;20151;-69
2021/06/18 13:09:08;;;;;;;4.97;3.90;;;40.80;34.80;;;;;;4394483;32;20164;-69
2021/06/18 13:11:45;;;;;;;4.35;4.00;;;41.00;35.90;;;;;;4392414;32;20210;-69
2021/06/18 13:14:23;;;;;;;4.70;4.20;;;40.60;35.70;;;;;;4394193;32;20222;-69
2021/06/18 13:16:57;;;;;;;5.65;4.03;;;40.00;36.10;;;;;;4392820;32;20159;-69
2021/06/18 13:19:45;;;;;;;6.35;4.30;;;40.20;36.30;;;;;;4394031;32;20551;-69
2021/06/18 13:22:30;;;;;;;6.65;4.45;;;39.90;36.00;;;;;;4394215;32;20151;-69
2021/06/18 13:25:04;;;;;;;5.95;4.47;;;39.70;37.00;;;;;;4393542;32;20151;-68